Time;durP1;ratioP1;P1;durP2;ratioP2;P2;SDS_P1;SDS_P2;PMS_P1;PMS_P2;Temp;Humidity;BMP_temperature;BMP_pressure;BME280_temperature;BME280_humidity;BME280_pressure;Samples;Min_cycle;Max_cycle;Signal;HPM_P1;HPM_P2
2022/09/21 00:00:32;;;;;;;7.63;3.43;;;;;;;10.45;96.50;102799.06;5052555;28;20029;-74
2022/09/21 00:02:57;;;;;;;7.67;3.67;;;;;;;10.49;95.91;102805.97;5052931;28;20061;-74
2022/09/21 00:05:23;;;;;;;9.63;3.07;;;;;;;10.51;95.46;102808.56;5052766;28;20029;-74
2022/09/21 00:07:49;;;;;;;7.75;2.97;;;;;;;10.51;95.31;102795.72;5052812;28;20449;-74
2022/09/21 00:10:15;;;;;;;10.93;3.47;;;;;;;10.58;96.14;102796.84;5052717;28;20040;-74
2022/09/21 00:12:41;;;;;;;8.38;3.90;;;;;;;10.60;95.71;102796.69;5052441;28;20028;-74
2022/09/21 00:15:09;;;;;;;7.50;2.73;;;;;;;10.58;95.19;102799.56;5052700;28;20041;-74
2022/09/21 00:17:36;;;;;;;8.82;3.60;;;;;;;10.62;96.04;102802.91;5034584;28;20388;-75
2022/09/21 00:20:04;;;;;;;8.15;3.75;;;;;;;10.63;96.57;102804.63;5053074;28;20037;-74
2022/09/21 00:22:30;;;;;;;4.63;3.20;;;;;;;10.63;95.34;102802.72;5052589;28;20037;-74
2022/09/21 00:24:55;;;;;;;5.30;3.33;;;;;;;10.65;95.27;102799.84;5052764;28;20378;-74
2022/09/21 00:27:21;;;;;;;5.82;2.95;;;;;;;10.65;96.00;102797.09;5052251;28;20021;-74
2022/09/21 00:29:47;;;;;;;9.60;3.67;;;;;;;10.68;95.03;102799.56;5052663;28;20127;-74
2022/09/21 00:32:14;;;;;;;8.37;2.73;;;;;;;10.64;94.94;102789.91;5034649;28;20087;-74
2022/09/21 00:34:40;;;;;;;7.25;3.17;;;;;;;10.67;96.57;102792.34;5052513;28;20044;-74
2022/09/21 00:37:08;;;;;;;7.33;3.27;;;;;;;10.60;95.95;102793.94;5052740;28;20032;-75
2022/09/21 00:39:33;;;;;;;8.23;2.75;;;;;;;10.62;95.53;102800.16;5052500;28;20707;-74
2022/09/21 00:41:59;;;;;;;10.53;3.77;;;;;;;10.59;96.05;102792.22;5052935;28;20028;-74
2022/09/21 00:44:31;;;;;;;7.15;3.28;;;;;;;10.58;95.92;102795.97;5034121;28;20033;-74
2022/09/21 00:47:11;;;;;;;7.07;3.25;;;;;;;10.57;95.54;102797.84;5034356;28;20041;-74
2022/09/21 00:49:38;;;;;;;8.25;3.28;;;;;;;10.57;95.76;102792.38;5052066;28;20112;-74
2022/09/21 00:52:06;;;;;;;7.72;3.00;;;;;;;10.57;95.74;102797.84;5052135;28;20036;-74
2022/09/21 00:54:41;;;;;;;8.15;3.22;;;;;;;10.54;95.77;102789.06;5051867;28;20033;-74
2022/09/21 00:57:06;;;;;;;6.43;3.00;;;;;;;10.53;95.66;102793.72;5052117;28;20112;-74
2022/09/21 00:59:36;;;;;;;5.73;3.17;;;;;;;10.56;95.53;102798.03;5051521;28;20100;-74
2022/09/21 01:02:01;;;;;;;5.38;2.60;;;;;;;10.57;96.01;102795.09;5052184;28;20021;-72
2022/09/21 01:04:27;;;;;;;7.43;2.87;;;;;;;10.53;95.87;102790.97;5051782;28;20381;-74
2022/09/21 01:06:54;;;;;;;8.87;3.20;;;;;;;10.51;95.77;102792.13;5052102;28;20039;-74
2022/09/21 01:09:20;;;;;;;6.53;2.85;;;;;;;10.54;96.18;102798.16;5051776;28;20021;-74
2022/09/21 01:12:15;;;;;;;10.30;3.07;;;;;;;10.55;96.08;102799.88;5051935;28;20527;-74
2022/09/21 01:14:48;;;;;;;7.60;2.53;;;;;;;10.59;96.91;102806.81;5022301;28;20044;-72
2022/09/21 01:17:22;;;;;;;5.00;2.42;;;;;;;10.54;96.42;102802.78;5051848;28;20124;-72
2022/09/21 01:20:08;;;;;;;14.00;2.55;;;;;;;10.54;96.53;102787.22;5051746;28;20033;-72
2022/09/21 01:22:52;;;;;;;9.23;3.25;;;;;;;10.51;96.08;102798.44;5033573;28;20063;-73
2022/09/21 01:25:36;;;;;;;8.20;3.15;;;;;;;10.50;96.31;102802.22;5033184;28;20033;-74
2022/09/21 01:28:31;;;;;;;4.40;2.35;;;;;;;10.48;96.33;102803.38;5051694;28;20033;-74
2022/09/21 01:31:04;;;;;;;7.22;3.65;;;;;;;10.45;96.48;102803.66;5016313;28;20040;-73
2022/09/21 01:33:39;;;;;;;9.05;2.22;;;;;;;10.44;96.58;102796.44;5051299;28;20044;-73
2022/09/21 01:36:10;;;;;;;9.88;2.58;;;;;;;10.37;97.00;102796.22;5051332;28;20036;-73
2022/09/21 01:38:50;;;;;;;6.53;2.55;;;;;;;10.31;97.36;102804.97;5051156;28;20025;-74
2022/09/21 01:41:21;;;;;;;3.80;2.38;;;;;;;10.25;97.18;102799.25;5051501;28;20029;-74
2022/09/21 01:43:51;;;;;;;6.38;2.72;;;;;;;10.17;96.56;102793.63;5051298;28;20033;-73
2022/09/21 01:46:20;;;;;;;3.30;2.28;;;;;;;10.12;96.88;102791.34;5051267;28;20419;-73
2022/09/21 01:48:51;;;;;;;9.48;2.75;;;;;;;10.08;97.71;102789.91;5051294;28;20104;-73
2022/09/21 01:51:20;;;;;;;3.38;2.38;;;;;;;10.04;97.46;102788.47;5051217;28;20037;-73
2022/09/21 01:53:54;;;;;;;6.32;2.80;;;;;;;9.94;97.69;102784.00;5051000;28;20029;-73
2022/09/21 01:56:39;;;;;;;9.65;2.67;;;;;;;9.83;97.40;102781.41;5051008;28;20396;-73
2022/09/21 01:59:10;;;;;;;6.53;2.60;;;;;;;9.79;97.42;102791.78;5051077;28;20033;-73
2022/09/21 02:01:42;;;;;;;7.10;2.95;;;;;;;9.76;97.59;102783.84;5050801;28;20037;-73
2022/09/21 02:04:10;;;;;;;9.77;3.17;;;;;;;9.71;97.22;102780.69;5051090;28;20037;-73
2022/09/21 02:06:38;;;;;;;5.75;2.35;;;;;;;9.67;97.12;102792.09;5050788;28;20598;-73
2022/09/21 02:09:04;;;;;;;7.07;2.20;;;;;;;9.61;97.30;102789.94;5050857;28;20033;-73
2022/09/21 02:11:29;;;;;;;9.53;2.80;;;;;;;9.53;97.27;102778.81;5050039;28;20388;-73
2022/09/21 02:13:55;;;;;;;4.30;2.33;;;;;;;9.46;97.78;102785.88;5051138;28;20487;-72
2022/09/21 02:16:43;;;;;;;8.25;2.55;;;;;;;9.39;97.58;102792.94;5050717;28;20033;-72
2022/09/21 02:19:34;;;;;;;8.38;3.28;;;;;;;9.31;97.85;102799.09;5050820;28;20040;-73
2022/09/21 02:22:44;;;;;;;7.00;2.63;;;;;;;9.24;98.60;102797.91;5051037;28;20048;-74
2022/09/21 02:25:14;;;;;;;10.60;2.47;;;;;;;9.26;98.61;102801.41;5017003;28;20492;-74
2022/09/21 02:27:39;;;;;;;4.32;2.80;;;;;;;9.26;98.51;102801.41;5050486;28;20056;-73
2022/09/21 02:30:17;;;;;;;7.03;2.90;;;;;;;9.21;97.84;102802.81;5051111;28;20488;-73
2022/09/21 02:32:43;;;;;;;6.60;2.65;;;;;;;9.17;98.01;102798.63;5050754;28;20392;-73
2022/09/21 02:35:29;;;;;;;7.63;2.80;;;;;;;9.07;96.68;102801.34;5050960;28;20024;-73
2022/09/21 02:38:07;;;;;;;6.05;2.28;;;;;;;9.08;97.76;102799.50;5051353;28;20435;-73
2022/09/21 02:40:39;;;;;;;4.78;2.50;;;;;;;9.03;97.92;102799.88;5052464;28;20025;-72
2022/09/21 02:43:10;;;;;;;6.90;2.50;;;;;;;8.98;97.93;102791.22;5052604;28;20413;-71
2022/09/21 02:45:44;;;;;;;4.38;2.60;;;;;;;9.00;98.45;102794.72;5034524;28;20468;-72
2022/09/21 02:48:19;;;;;;;5.85;2.28;;;;;;;8.97;98.28;102788.66;5050941;28;20052;-73
2022/09/21 02:50:51;;;;;;;4.30;2.83;;;;;;;8.91;98.01;102789.22;5050721;28;20067;-73
2022/09/21 02:53:26;;;;;;;5.47;2.58;;;;;;;8.83;97.25;102787.19;5050482;28;20044;-73
2022/09/21 02:55:53;;;;;;;5.93;2.88;;;;;;;8.85;97.79;102784.28;5032580;28;20028;-73
2022/09/21 02:58:21;;;;;;;3.55;2.35;;;;;;;8.81;97.21;102791.06;5032509;28;20029;-72
2022/09/21 03:00:46;;;;;;;7.47;2.85;;;;;;;8.79;98.03;102780.25;5050379;28;20033;-73
2022/09/21 03:03:20;;;;;;;6.37;3.47;;;;;;;8.77;98.06;102785.00;5050397;28;20043;-72
2022/09/21 03:05:47;;;;;;;3.88;2.30;;;;;;;8.76;97.65;102786.00;5050146;28;20116;-72
2022/09/21 03:08:14;;;;;;;5.32;2.80;;;;;;;8.70;97.72;102789.28;5050361;28;20096;-73
2022/09/21 03:10:39;;;;;;;7.72;2.55;;;;;;;8.65;97.60;102786.09;5049947;28;20392;-72
2022/09/21 03:13:08;;;;;;;15.18;3.10;;;;;;;8.69;98.13;102789.41;5050080;28;20029;-73
2022/09/21 03:15:38;;;;;;;3.78;2.33;;;;;;;8.50;96.96;102783.88;5049889;28;20421;-73
2022/09/21 03:18:05;;;;;;;6.53;2.45;;;;;;;8.50;98.39;102792.91;5050148;28;20308;-73
2022/09/21 03:20:33;;;;;;;4.72;2.30;;;;;;;8.45;97.91;102788.88;5049857;28;20448;-73
2022/09/21 03:22:59;;;;;;;5.15;2.22;;;;;;;8.46;98.02;102796.06;5031979;28;20433;-73
2022/09/21 03:25:25;;;;;;;3.80;2.10;;;;;;;8.42;98.81;102786.41;5049853;28;20041;-72
2022/09/21 03:27:54;;;;;;;10.55;2.30;;;;;;;8.40;99.03;102788.44;5032023;28;20024;-73
2022/09/21 03:30:24;;;;;;;10.63;2.15;;;;;;;8.41;98.66;102795.59;5031866;28;20032;-73
2022/09/21 03:32:50;;;;;;;9.50;3.67;;;;;;;8.35;98.46;102796.16;5032016;28;20028;-73
2022/09/21 03:35:18;;;;;;;3.33;2.37;;;;;;;8.34;98.75;102794.44;5049641;28;20136;-73
2022/09/21 03:37:44;;;;;;;4.65;2.55;;;;;;;8.34;98.73;102799.88;5049603;28;20112;-73
2022/09/21 03:40:11;;;;;;;6.95;2.50;;;;;;;8.38;99.33;102801.38;5049774;28;20021;-74
2022/09/21 03:42:36;;;;;;;5.18;2.55;;;;;;;8.36;98.86;102806.06;5049454;28;20135;-73
2022/09/21 03:45:02;;;;;;;3.13;2.45;;;;;;;8.32;98.15;102810.09;5049615;28;20115;-73
2022/09/21 03:47:28;;;;;;;7.82;2.35;;;;;;;8.27;98.42;102801.44;5049371;28;20072;-74
2022/09/21 03:49:53;;;;;;;6.55;2.70;;;;;;;8.24;98.49;102804.44;5049731;28;20199;-73
2022/09/21 03:52:18;;;;;;;9.77;2.40;;;;;;;8.20;98.81;102808.41;5049368;28;20029;-73
2022/09/21 03:54:44;;;;;;;4.53;2.63;;;;;;;8.17;99.05;102806.78;5049430;28;20033;-73
2022/09/21 03:57:09;;;;;;;5.85;2.97;;;;;;;8.15;99.16;102799.72;5049622;28;20040;-73
2022/09/21 03:59:34;;;;;;;3.92;2.35;;;;;;;8.17;98.37;102814.97;5049350;28;20523;-74
2022/09/21 04:02:00;;;;;;;5.43;2.50;;;;;;;8.14;98.33;102808.91;5049591;28;20048;-73
2022/09/21 04:04:25;;;;;;;4.70;2.28;;;;;;;8.09;98.49;102803.00;5049180;28;20048;-73
2022/09/21 04:06:50;;;;;;;10.02;2.50;;;;;;;8.10;98.61;102802.88;5031450;28;20044;-73
2022/09/21 04:09:16;;;;;;;7.30;3.15;;;;;;;8.07;98.50;102796.81;5049237;28;20041;-73
2022/09/21 04:11:44;;;;;;;7.60;2.72;;;;;;;8.03;98.80;102798.94;5049334;28;20036;-73
2022/09/21 04:14:11;;;;;;;5.80;2.80;;;;;;;8.05;98.76;102804.25;5049466;28;20027;-74
2022/09/21 04:16:36;;;;;;;8.27;3.05;;;;;;;7.96;98.27;102795.00;5049490;28;20437;-73
2022/09/21 04:19:01;;;;;;;5.30;3.03;;;;;;;7.99;98.53;102793.88;5049549;28;20106;-73
2022/09/21 04:21:27;;;;;;;6.53;2.70;;;;;;;7.96;98.47;102797.72;5049015;28;20033;-73
2022/09/21 04:23:52;;;;;;;6.80;3.20;;;;;;;7.89;99.25;102796.53;5031413;28;20143;-73
2022/09/21 04:26:24;;;;;;;5.47;2.50;;;;;;;7.92;99.01;102800.88;5049066;28;20028;-73
2022/09/21 04:28:51;;;;;;;5.10;2.55;;;;;;;7.86;98.67;102804.97;5049169;28;20025;-73
2022/09/21 04:31:16;;;;;;;5.18;3.28;;;;;;;7.90;99.30;102809.19;5049143;28;20025;-73
2022/09/21 04:33:42;;;;;;;5.28;2.70;;;;;;;7.83;98.50;102804.38;5050404;28;20040;-73
2022/09/21 04:36:07;;;;;;;3.63;2.60;;;;;;;7.87;99.51;102803.13;5052536;28;20396;-73
2022/09/21 04:38:32;;;;;;;5.20;2.60;;;;;;;7.86;99.09;102804.13;5052434;28;20029;-73
2022/09/21 04:40:58;;;;;;;4.20;2.70;;;;;;;7.76;99.00;102803.19;5052572;28;20108;-73
2022/09/21 04:43:24;;;;;;;5.63;2.90;;;;;;;7.76;99.23;102808.63;5052202;28;20037;-73
2022/09/21 04:45:49;;;;;;;5.55;2.47;;;;;;;7.77;98.36;102804.91;5052478;28;20033;-73
2022/09/21 04:48:15;;;;;;;5.63;2.50;;;;;;;7.74;99.50;102805.19;5052404;28;20044;-73
2022/09/21 04:50:40;;;;;;;6.88;2.65;;;;;;;7.73;98.72;102795.25;5052205;28;20041;-73
2022/09/21 04:53:05;;;;;;;3.53;2.40;;;;;;;7.67;98.96;102803.97;5052302;28;20047;-73
2022/09/21 04:55:31;;;;;;;5.63;2.20;;;;;;;7.68;99.04;102794.81;5033861;28;20392;-73
2022/09/21 04:57:56;;;;;;;9.43;2.70;;;;;;;7.64;99.79;102809.69;5052266;28;20505;-73
2022/09/21 05:00:22;;;;;;;10.63;2.33;;;;;;;7.59;99.37;102806.50;5052100;28;20048;-73
2022/09/21 05:02:47;;;;;;;7.07;2.95;;;;;;;7.64;99.97;102812.44;5051924;28;20480;-73
2022/09/21 05:05:12;;;;;;;3.83;2.83;;;;;;;7.63;99.33;102808.81;5052077;28;20033;-74
2022/09/21 05:07:38;;;;;;;4.50;2.95;;;;;;;7.65;99.27;102812.31;5051999;28;20357;-72
2022/09/21 05:10:04;;;;;;;4.95;2.58;;;;;;;7.58;98.92;102799.31;5052150;28;20037;-74
2022/09/21 05:12:30;;;;;;;6.82;2.90;;;;;;;7.59;99.69;102807.34;5052088;28;20029;-74
2022/09/21 05:14:56;;;;;;;5.35;2.90;;;;;;;7.56;100.00;102809.47;5051844;28;20104;-74
2022/09/21 05:17:22;;;;;;;10.40;3.33;;;;;;;7.57;99.52;102813.91;5051903;28;20551;-74
2022/09/21 05:19:48;;;;;;;10.57;3.30;;;;;;;7.65;99.53;102814.16;5052041;28;20091;-74
2022/09/21 05:22:13;;;;;;;4.65;3.00;;;;;;;7.65;99.57;102814.16;5051914;28;20033;-74
2022/09/21 05:24:39;;;;;;;5.90;2.85;;;;;;;7.71;99.38;102817.22;5033914;28;20524;-74
2022/09/21 05:27:04;;;;;;;13.25;3.20;;;;;;;7.77;99.77;102816.69;5051921;28;20029;-74
2022/09/21 05:29:30;;;;;;;5.95;2.92;;;;;;;7.76;98.98;102814.09;5033776;28;20028;-74
2022/09/21 05:32:11;;;;;;;7.05;3.25;;;;;;;7.77;99.47;102810.38;5051715;28;20067;-74
2022/09/21 05:34:54;;;;;;;5.00;3.58;;;;;;;7.83;99.70;102810.72;5051572;28;20028;-74
2022/09/21 05:37:47;;;;;;;8.50;3.60;;;;;;;7.81;99.07;102818.19;5051468;28;20040;-73
2022/09/21 05:40:13;;;;;;;6.88;3.28;;;;;;;7.87;99.06;102819.50;5033665;28;20377;-74
2022/09/21 05:42:39;;;;;;;7.57;3.63;;;;;;;7.86;99.18;102825.97;5051196;28;20033;-74
2022/09/21 05:45:05;;;;;;;8.57;4.20;;;;;;;7.88;99.02;102819.38;5051421;28;20033;-74
2022/09/21 05:47:53;;;;;;;9.37;4.43;;;;;;;7.93;99.28;102821.69;5051202;28;20114;-74
2022/09/21 05:50:39;;;;;;;9.23;4.15;;;;;;;7.94;98.55;102818.84;5051241;28;20384;-74
2022/09/21 05:53:23;;;;;;;10.73;4.22;;;;;;;8.04;99.45;102824.34;5033620;28;20064;-74
2022/09/21 05:56:02;;;;;;;8.75;3.83;;;;;;;8.08;98.50;102818.53;5051103;28;20071;-73
2022/09/21 05:58:44;;;;;;;8.45;3.47;;;;;;;8.12;99.29;102827.31;5051307;28;20044;-74
2022/09/21 06:01:39;;;;;;;6.88;3.67;;;;;;;8.21;99.00;102823.78;5051515;28;20158;-74
2022/09/21 06:04:10;;;;;;;6.88;3.42;;;;;;;8.28;97.97;102830.47;5050497;28;20040;-74
2022/09/21 06:06:35;;;;;;;13.77;4.38;;;;;;;8.38;99.19;102834.97;5051317;28;20047;-74
2022/09/21 06:09:00;;;;;;;19.75;4.93;;;;;;;8.50;98.68;102843.97;5051112;28;20025;-73
2022/09/21 06:11:26;;;;;;;6.90;3.30;;;;;;;8.59;97.92;102848.63;5050724;28;20033;-73
2022/09/21 06:13:51;;;;;;;9.32;4.07;;;;;;;8.67;97.42;102841.47;5051017;28;20082;-73
2022/09/21 06:16:16;;;;;;;12.73;4.73;;;;;;;8.79;98.28;102848.56;5051007;28;20029;-73
2022/09/21 06:18:42;;;;;;;9.17;4.00;;;;;;;8.86;97.51;102837.97;5051249;28;20051;-73
2022/09/21 06:21:07;;;;;;;9.43;4.13;;;;;;;8.99;98.00;102838.56;5050917;28;20033;-73
2022/09/21 06:23:34;;;;;;;14.07;4.45;;;;;;;9.12;98.08;102842.78;5050628;28;20037;-73
2022/09/21 06:25:59;;;;;;;10.18;3.60;;;;;;;9.23;98.13;102844.56;5050884;28;20131;-73
2022/09/21 06:28:25;;;;;;;5.82;3.70;;;;;;;9.34;97.93;102836.25;5050744;28;20076;-73
2022/09/21 06:30:52;;;;;;;11.63;4.13;;;;;;;9.46;98.03;102841.44;5050851;28;20029;-73
2022/09/21 06:33:20;;;;;;;7.22;4.30;;;;;;;9.61;98.14;102837.28;5050494;28;20108;-72
2022/09/21 06:35:55;;;;;;;11.50;3.60;;;;;;;9.74;98.06;102840.63;5050594;28;20588;-73
2022/09/21 06:38:20;;;;;;;10.43;3.47;;;;;;;9.87;97.79;102854.03;5050471;28;20024;-73
2022/09/21 06:40:46;;;;;;;6.60;3.83;;;;;;;9.97;97.14;102857.59;5050521;28;20041;-73
2022/09/21 06:43:11;;;;;;;9.37;4.40;;;;;;;10.07;97.05;102842.06;5050760;28;20532;-73
2022/09/21 06:45:36;;;;;;;10.30;4.07;;;;;;;10.21;96.59;102849.84;5050332;28;20036;-73
2022/09/21 06:48:02;;;;;;;8.32;3.90;;;;;;;10.31;96.53;102846.06;5050502;28;20178;-72
2022/09/21 06:50:27;;;;;;;9.17;4.30;;;;;;;10.44;96.56;102840.28;5050254;28;20029;-73
2022/09/21 06:52:53;;;;;;;6.10;4.07;;;;;;;10.60;97.28;102846.00;5032698;28;20116;-73
2022/09/21 06:55:18;;;;;;;14.80;4.37;;;;;;;10.73;96.45;102852.91;5050356;28;20132;-73
2022/09/21 06:57:43;;;;;;;10.07;5.10;;;;;;;10.84;96.69;102849.97;5050108;28;20504;-73
2022/09/21 07:00:10;;;;;;;11.40;4.77;;;;;;;10.95;96.23;102844.28;5032701;28;20535;-73
2022/09/21 07:02:36;;;;;;;7.90;4.43;;;;;;;11.06;95.55;102843.25;5049998;28;20072;-73
2022/09/21 07:05:02;;;;;;;20.53;5.20;;;;;;;11.20;95.81;102840.00;5032355;28;20087;-74
2022/09/21 07:07:31;;;;;;;10.50;5.10;;;;;;;11.33;95.35;102848.72;5049977;28;20028;-73
2022/09/21 07:09:58;;;;;;;13.35;4.90;;;;;;;11.40;94.95;102847.97;5050156;28;20035;-73
2022/09/21 07:12:25;;;;;;;12.15;5.07;;;;;;;11.45;94.80;102850.25;5050269;28;20109;-73
2022/09/21 07:14:50;;;;;;;9.57;4.85;;;;;;;11.48;94.60;102849.94;5050233;28;20032;-73
2022/09/21 07:17:16;;;;;;;13.73;5.00;;;;;;;11.50;94.19;102850.63;5050227;28;20074;-73
2022/09/21 07:19:41;;;;;;;11.50;4.90;;;;;;;11.45;94.37;102850.25;5050168;28;20082;-73
2022/09/21 07:22:06;;;;;;;16.43;4.93;;;;;;;11.34;93.45;102850.44;5049989;28;20480;-73
2022/09/21 07:24:32;;;;;;;9.00;4.63;;;;;;;11.33;94.01;102852.34;5049971;28;20663;-73
2022/09/21 07:26:57;;;;;;;9.40;4.47;;;;;;;11.34;93.96;102851.34;5050205;28;20036;-73
2022/09/21 07:29:23;;;;;;;10.17;4.83;;;;;;;11.35;93.83;102853.06;5049899;28;20198;-74
2022/09/21 07:31:48;;;;;;;12.73;5.13;;;;;;;11.47;93.91;102856.47;5050000;28;20083;-73
2022/09/21 07:34:14;;;;;;;14.80;4.37;;;;;;;11.51;93.78;102855.09;5049943;28;20528;-73
2022/09/21 07:36:39;;;;;;;13.63;4.80;;;;;;;11.55;92.89;102849.19;5049808;28;20116;-73
2022/09/21 07:39:07;;;;;;;13.00;4.40;;;;;;;11.57;93.33;102843.50;5049932;28;20025;-73
2022/09/21 07:41:33;;;;;;;10.65;4.00;;;;;;;11.62;91.89;102849.44;5049750;28;20032;-73
2022/09/21 07:43:58;;;;;;;10.27;3.80;;;;;;;11.80;91.77;102842.09;5049760;28;20029;-73
2022/09/21 07:46:23;;;;;;;15.97;3.70;;;;;;;11.96;90.51;102839.50;5050039;28;20131;-73
2022/09/21 07:48:53;;;;;;;10.50;2.90;;;;;;;12.15;88.28;102840.19;5049850;28;20025;-73
2022/09/21 07:51:18;;;;;;;7.90;3.42;;;;;;;12.17;88.38;102843.63;5049699;28;20124;-73
2022/09/21 07:53:44;;;;;;;8.83;3.17;;;;;;;12.33;87.16;102842.91;5049721;28;20112;-73
2022/09/21 07:56:15;;;;;;;8.23;3.67;;;;;;;12.45;85.01;102849.88;5049732;28;20109;-73
2022/09/21 08:01:25;;;;;;;6.72;2.85;;;;;;;12.62;84.22;102846.19;5049344;28;20174;-73
2022/09/21 08:03:52;;;;;;;6.30;2.33;;;;;;;12.66;82.81;102850.38;5031558;28;20406;-73
2022/09/21 08:06:19;;;;;;;11.70;2.10;;;;;;;12.76;82.55;102851.97;5049309;28;20044;-73
2022/09/21 08:08:46;;;;;;;7.00;2.67;;;;;;;12.85;81.55;102851.00;5051070;28;20029;-73
2022/09/21 08:11:13;;;;;;;7.97;2.58;;;;;;;12.97;81.10;102844.22;5053192;28;20112;-73
2022/09/21 08:13:39;;;;;;;8.25;2.20;;;;;;;13.07;79.83;102841.34;5052534;28;20040;-73
2022/09/21 08:16:05;;;;;;;15.13;3.00;;;;;;;13.17;79.72;102847.56;5052883;28;20037;-72
2022/09/21 08:18:30;;;;;;;6.00;1.70;;;;;;;13.41;80.29;102847.69;5052613;28;20021;-73
2022/09/21 08:20:57;;;;;;;10.00;1.90;;;;;;;13.44;79.16;102841.84;5053032;28;20477;-73
2022/09/21 08:23:25;;;;;;;8.35;2.10;;;;;;;13.53;79.89;102852.72;5052625;28;20403;-73
2022/09/21 08:25:50;;;;;;;9.15;1.67;;;;;;;13.72;79.77;102857.91;5052783;28;20028;-73
2022/09/21 08:28:17;;;;;;;7.73;1.70;;;;;;;13.91;77.62;102860.38;5052779;28;20228;-73
2022/09/21 08:30:43;;;;;;;7.18;2.13;;;;;;;13.86;76.24;102846.25;5053488;28;20043;-73
2022/09/21 08:33:08;;;;;;;3.97;0.97;;;;;;;13.89;77.66;102850.56;5054451;28;20033;-73
2022/09/21 08:35:35;;;;;;;4.10;1.00;;;;;;;14.05;76.37;102854.19;5053265;28;20037;-73
2022/09/21 08:38:00;;;;;;;2.92;1.35;;;;;;;14.18;75.53;102854.53;5053895;28;20060;-74
2022/09/21 08:40:25;;;;;;;8.60;1.33;;;;;;;14.37;73.78;102851.50;5035985;28;20079;-73
2022/09/21 08:42:54;;;;;;;3.00;1.23;;;;;;;14.41;73.47;102854.75;5052641;28;20036;-73
2022/09/21 08:45:20;;;;;;;7.85;1.60;;;;;;;14.47;73.76;102860.41;5053343;28;20033;-73
2022/09/21 08:47:48;;;;;;;;;;;;;;;14.61;74.50;102867.13;5053575;28;20032;-73
2022/09/21 08:50:44;;;;;;;8.27;2.33;;;;;;;14.69;71.65;102856.09;5053473;28;19959;-73
2022/09/21 08:53:45;;;;;;;6.03;1.35;;;;;;;14.81;72.97;102865.72;5052506;28;20032;-73
2022/09/21 08:56:12;;;;;;;3.58;1.20;;;;;;;14.99;69.56;102866.38;5010441;28;20041;-73
2022/09/21 08:58:42;;;;;;;6.95;1.33;;;;;;;15.06;71.36;102867.38;5036441;28;20025;-73
2022/09/21 09:01:23;;;;;;;8.85;1.40;;;;;;;15.18;70.23;102871.47;5034612;28;20108;-73
2022/09/21 09:03:57;;;;;;;6.40;1.42;;;;;;;15.39;71.35;102877.31;5034795;28;20044;-73
2022/09/21 09:06:35;;;;;;;6.38;1.45;;;;;;;15.52;70.42;102872.94;5052929;28;20028;-72
2022/09/21 09:09:32;;;;;;;9.90;2.50;;;;;;;15.50;71.05;102869.50;5053489;28;20613;-74
2022/09/21 09:12:19;;;;;;;15.13;2.17;;;;;;;15.57;69.21;102869.59;5025360;28;20122;-73
2022/09/21 09:15:16;;;;;;;4.03;1.30;;;;;;;15.55;69.04;102863.41;5052639;28;20090;-72
2022/09/21 09:18:00;;;;;;;10.27;1.83;;;;;;;15.68;70.51;102872.84;5052839;28;20063;-74
2022/09/21 09:20:35;;;;;;;8.07;1.40;;;;;;;16.02;69.81;102875.22;5052462;28;20102;-72
2022/09/21 09:23:19;;;;;;;6.07;1.33;;;;;;;16.02;68.74;102867.78;5054005;28;20029;-73
2022/09/21 09:25:48;;;;;;;5.22;1.40;;;;;;;16.16;66.78;102872.53;5052791;28;20441;-74
2022/09/21 09:28:26;;;;;;;4.13;0.73;;;;;;;16.19;64.27;102880.47;5035037;28;20473;-73
2022/09/21 09:30:59;;;;;;;10.18;1.55;;;;;;;16.15;63.48;102870.81;5052247;28;20119;-73
2022/09/21 09:33:29;;;;;;;4.68;2.15;;;;;;;16.36;65.17;102876.50;5051573;28;20045;-73
2022/09/21 09:36:01;;;;;;;10.20;1.50;;;;;;;16.49;65.08;102876.75;5033853;28;20040;-73
2022/09/21 09:38:38;;;;;;;8.50;1.95;;;;;;;16.53;63.95;102877.25;5051536;28;20043;-73
2022/09/21 09:41:36;;;;;;;4.88;0.98;;;;;;;16.60;63.50;102865.25;5051781;28;20082;-73
2022/09/21 09:44:04;;;;;;;6.22;1.23;;;;;;;16.82;64.72;102877.34;5051717;28;20041;-73
2022/09/21 09:46:48;;;;;;;4.53;1.48;;;;;;;16.89;62.80;102870.84;5051220;28;20025;-73
2022/09/21 09:49:57;;;;;;;5.93;1.20;;;;;;;16.95;61.74;102883.06;5033487;28;20119;-73
2022/09/21 09:52:22;;;;;;;5.05;0.80;;;;;;;16.84;57.30;102873.31;5051522;28;20032;-74
2022/09/21 09:54:47;;;;;;;6.67;1.53;;;;;;;17.01;61.16;102874.88;5051156;28;20492;-73
2022/09/21 09:57:14;;;;;;;6.33;1.40;;;;;;;17.17;59.91;102871.03;5033367;28;20032;-73
2022/09/21 09:59:52;;;;;;;7.40;1.15;;;;;;;17.15;57.79;102874.03;5051080;28;20052;-73
2022/09/21 10:02:25;;;;;;;4.03;1.00;;;;;;;16.95;58.91;102872.84;5051071;28;20037;-72
2022/09/21 10:05:07;;;;;;;4.13;1.30;;;;;;;17.25;60.08;102870.97;5033119;28;20037;-73
2022/09/21 10:07:46;;;;;;;4.68;1.10;;;;;;;17.38;60.62;102863.72;5033074;28;20034;-73
2022/09/21 10:10:31;;;;;;;7.63;1.38;;;;;;;17.52;60.40;102864.75;5051086;28;20032;-72
2022/09/21 10:13:20;;;;;;;6.72;1.33;;;;;;;17.94;58.12;102867.63;5033051;28;20463;-72
2022/09/21 10:15:52;;;;;;;5.28;1.30;;;;;;;18.00;57.63;102866.84;5050976;28;20029;-73
2022/09/21 10:18:36;;;;;;;4.10;0.85;;;;;;;18.24;56.40;102869.25;5050852;28;20037;-73
2022/09/21 10:21:07;;;;;;;8.38;1.02;;;;;;;18.17;56.19;102871.94;5050963;28;20029;-73
2022/09/21 10:23:35;;;;;;;8.57;1.25;;;;;;;18.30;57.47;102869.28;5050656;28;20082;-73
2022/09/21 10:26:09;;;;;;;2.83;1.10;;;;;;;18.25;54.91;102863.47;5051195;28;20037;-74
2022/09/21 10:28:35;;;;;;;3.83;1.00;;;;;;;18.08;55.28;102861.19;5050590;28;20059;-73
2022/09/21 10:31:21;;;;;;;3.45;0.82;;;;;;;18.14;53.60;102868.69;5049837;28;20029;-73
2022/09/21 10:34:11;;;;;;;10.00;1.23;;;;;;;18.34;53.52;102867.00;5050630;28;20148;-73
2022/09/21 10:36:37;;;;;;;6.32;1.20;;;;;;;18.58;53.42;102852.72;5032360;28;20099;-74
2022/09/21 10:39:30;;;;;;;7.63;0.90;;;;;;;18.28;49.53;102857.53;5032668;28;20170;-73
2022/09/21 10:42:13;;;;;;;2.00;0.80;;;;;;;18.45;50.59;102856.22;5046963;28;20116;-73
2022/09/21 10:44:41;;;;;;;4.80;1.10;;;;;;;18.49;51.70;102859.44;5050316;28;20064;-73
2022/09/21 10:47:34;;;;;;;6.15;1.00;;;;;;;18.49;50.96;102859.44;5050396;28;20113;-73
2022/09/21 10:50:03;;;;;;;9.05;0.98;;;;;;;18.60;52.25;102845.91;5032315;28;20120;-73
2022/09/21 10:52:42;;;;;;;5.90;1.40;;;;;;;18.76;51.26;102845.59;5032315;28;20094;-73
2022/09/21 10:55:17;;;;;;;5.50;1.05;;;;;;;18.66;48.25;102845.09;5050184;28;20037;-73
2022/09/21 10:57:44;;;;;;;4.03;1.08;;;;;;;18.50;50.52;102844.50;5032110;28;20033;-73
2022/09/21 11:00:25;;;;;;;5.60;1.35;;;;;;;18.49;46.03;102843.69;5050362;28;20086;-73
2022/09/21 11:02:53;;;;;;;2.83;1.08;;;;;;;18.70;47.40;102851.09;5050051;28;20356;-73
2022/09/21 11:05:26;;;;;;;5.93;0.82;;;;;;;18.88;48.76;102851.47;5050139;28;20033;-73
2022/09/21 11:08:01;;;;;;;3.33;1.08;;;;;;;18.79;47.28;102839.63;5050150;28;20025;-73
2022/09/21 11:10:39;;;;;;;5.55;1.00;;;;;;;19.12;47.24;102848.19;5049842;28;20450;-73
2022/09/21 11:13:19;;;;;;;2.17;0.75;;;;;;;19.17;46.64;102854.88;5050248;28;20036;-73
2022/09/21 11:15:58;;;;;;;3.05;0.95;;;;;;;19.26;45.95;102848.09;5049954;28;20041;-74
2022/09/21 11:18:48;;;;;;;2.67;0.90;;;;;;;19.45;46.98;102843.69;5049904;28;20033;-73
2022/09/21 11:21:16;;;;;;;3.17;0.80;;;;;;;19.58;45.70;102849.34;5050009;28;20044;-73
2022/09/21 11:23:56;;;;;;;2.58;0.90;;;;;;;19.94;46.49;102842.38;5049765;28;20318;-74
2022/09/21 11:26:34;;;;;;;4.38;0.93;;;;;;;19.87;44.64;102838.75;5031899;28;20551;-73
2022/09/21 11:29:11;;;;;;;1.52;0.70;;;;;;;19.77;45.38;102840.19;5032067;28;20029;-73
2022/09/21 11:31:42;;;;;;;4.22;0.98;;;;;;;19.82;44.69;102835.72;5048285;28;20033;-73
2022/09/21 11:34:10;;;;;;;4.65;1.25;;;;;;;19.94;46.95;102830.38;5035972;28;20113;-73
2022/09/21 11:36:44;;;;;;;3.30;0.90;;;;;;;20.22;46.31;102833.91;5029625;28;20120;-73
2022/09/21 11:39:35;;;;;;;3.70;0.90;;;;;;;20.11;44.32;102831.75;5011961;28;20033;-74
2022/09/21 11:42:00;;;;;;;3.28;1.10;;;;;;;20.20;46.62;102831.34;5030165;28;20021;-74
2022/09/21 11:44:35;;;;;;;3.90;0.90;;;;;;;19.90;48.25;102834.69;5033101;28;20064;-73
2022/09/21 11:47:23;;;;;;;2.42;1.13;;;;;;;19.55;47.27;102825.56;5033501;28;20083;-74